Time;durP1;ratioP1;P1;durP2;ratioP2;P2;SDS_P1;SDS_P2;PMS_P1;PMS_P2;Temp;Humidity;BMP_temperature;BMP_pressure;BME280_temperature;BME280_humidity;BME280_pressure;Samples;Min_cycle;Max_cycle;Signal;HPM_P1;HPM_P2
2023/04/16 00:01:54;;;;;;;83.05;34.35;;;8.00;99.90;;;;;;4963880;28;20409;-76
2023/04/16 00:04:20;;;;;;;92.28;34.25;;;8.00;99.90;;;;;;4963254;28;20101;-76
2023/04/16 00:06:46;;;;;;;82.57;31.75;;;8.00;99.90;;;;;;4948274;28;20035;-76
2023/04/16 00:09:11;;;;;;;83.03;32.75;;;8.00;99.90;;;;;;4921434;28;20495;-76
2023/04/16 00:11:37;;;;;;;86.95;32.40;;;8.00;99.90;;;;;;4933278;28;20181;-76
2023/04/16 00:14:03;;;;;;;84.00;34.35;;;8.00;99.90;;;;;;4946566;28;20053;-76
2023/04/16 00:16:29;;;;;;;83.65;33.80;;;8.00;99.90;;;;;;4937910;28;20097;-76
2023/04/16 00:18:54;;;;;;;81.13;35.50;;;8.00;99.90;;;;;;4950249;28;20043;-76
2023/04/16 00:21:20;;;;;;;87.93;34.40;;;8.00;99.90;;;;;;4947946;28;20051;-76
2023/04/16 00:23:46;;;;;;;88.68;33.83;;;8.00;99.90;;;;;;4940511;28;20077;-76
2023/04/16 00:26:12;;;;;;;100.13;33.85;;;8.00;99.90;;;;;;4940085;28;20042;-76
2023/04/16 00:28:37;;;;;;;92.88;35.83;;;8.00;99.90;;;;;;4938683;28;20459;-76
2023/04/16 00:31:03;;;;;;;84.90;33.63;;;7.90;99.90;;;;;;4952338;28;20034;-76
2023/04/16 00:33:29;;;;;;;90.38;34.78;;;7.90;99.90;;;;;;4957198;28;20407;-76
2023/04/16 00:35:55;;;;;;;90.88;33.97;;;7.90;99.90;;;;;;4955768;28;20347;-76
2023/04/16 00:38:20;;;;;;;90.18;36.75;;;7.90;99.90;;;;;;4953071;28;20500;-76
2023/04/16 00:40:46;;;;;;;87.80;34.88;;;7.90;99.90;;;;;;4969801;28;20046;-76
2023/04/16 00:43:21;;;;;;;93.55;34.38;;;7.90;99.90;;;;;;4939901;28;20038;-76
2023/04/16 00:45:47;;;;;;;86.72;34.92;;;7.90;99.90;;;;;;4956715;28;20070;-76
2023/04/16 00:48:13;;;;;;;84.25;35.08;;;7.90;99.90;;;;;;4954227;28;20442;-76
2023/04/16 00:50:38;;;;;;;87.35;34.15;;;7.90;99.90;;;;;;4955143;28;20058;-76
2023/04/16 00:53:04;;;;;;;93.68;34.50;;;7.90;99.90;;;;;;4966954;28;20042;-76
2023/04/16 00:55:30;;;;;;;86.80;33.03;;;7.90;99.90;;;;;;4938960;28;20484;-76
2023/04/16 00:57:56;;;;;;;88.35;35.38;;;7.80;99.90;;;;;;4942877;28;20067;-76
2023/04/16 01:00:21;;;;;;;96.57;35.95;;;7.80;99.90;;;;;;4971493;28;20045;-76
2023/04/16 01:02:47;;;;;;;94.38;36.10;;;7.80;99.90;;;;;;4967991;28;20430;-76
2023/04/16 01:05:13;;;;;;;94.78;33.55;;;7.70;99.90;;;;;;4968239;28;20484;-76
2023/04/16 01:07:39;;;;;;;92.15;35.15;;;7.70;99.90;;;;;;4939620;28;20033;-76
2023/04/16 01:10:05;;;;;;;89.90;35.22;;;7.70;99.90;;;;;;4955365;28;20043;-76
2023/04/16 01:12:31;;;;;;;89.60;36.20;;;7.70;99.90;;;;;;4967513;28;20050;-76
2023/04/16 01:14:57;;;;;;;93.47;36.30;;;7.70;99.90;;;;;;4956242;28;20045;-76
2023/04/16 01:17:22;;;;;;;98.20;33.85;;;7.70;99.90;;;;;;4953652;28;20042;-76
2023/04/16 01:19:48;;;;;;;105.25;34.85;;;7.70;99.90;;;;;;4954292;28;20041;-76
2023/04/16 01:22:15;;;;;;;89.18;34.00;;;7.60;99.90;;;;;;4968333;28;20587;-76
2023/04/16 01:24:40;;;;;;;87.25;35.25;;;7.60;99.90;;;;;;4949100;28;20626;-76
2023/04/16 01:27:06;;;;;;;84.25;33.38;;;7.60;99.90;;;;;;4969511;28;20128;-76
2023/04/16 01:29:32;;;;;;;100.05;36.63;;;7.60;99.90;;;;;;4940628;28;20033;-76
2023/04/16 01:31:57;;;;;;;98.82;36.03;;;7.60;99.90;;;;;;4939881;28;20041;-76
2023/04/16 01:34:23;;;;;;;105.05;38.30;;;7.60;99.90;;;;;;4968059;28;20051;-76
2023/04/16 01:36:49;;;;;;;104.10;37.33;;;7.50;99.90;;;;;;4965774;28;20369;-76
2023/04/16 01:39:16;;;;;;;111.40;37.63;;;7.50;99.90;;;;;;4950674;28;20038;-76
2023/04/16 01:41:42;;;;;;;99.75;33.58;;;7.50;99.90;;;;;;4969059;28;20093;-76
2023/04/16 01:44:08;;;;;;;116.70;36.78;;;7.50;99.90;;;;;;4965572;28;20069;-76
2023/04/16 01:46:34;;;;;;;107.35;37.20;;;7.50;99.90;;;;;;4967177;28;20089;-76
2023/04/16 01:49:01;;;;;;;113.85;38.90;;;7.50;99.90;;;;;;4953023;28;20098;-76
2023/04/16 01:51:27;;;;;;;108.57;38.28;;;7.50;99.90;;;;;;4967501;28;20456;-76
2023/04/16 01:53:53;;;;;;;118.95;35.47;;;7.50;99.90;;;;;;4951274;28;20065;-76
2023/04/16 01:56:19;;;;;;;108.03;37.80;;;7.50;99.90;;;;;;4967591;28;20101;-76
2023/04/16 01:58:46;;;;;;;103.50;36.97;;;7.50;99.90;;;;;;4965779;28;20039;-75
2023/04/16 02:01:12;;;;;;;102.82;35.95;;;7.50;99.90;;;;;;4955558;28;20066;-75
2023/04/16 02:03:39;;;;;;;111.57;36.55;;;7.50;99.90;;;;;;4953323;28;20117;-76
2023/04/16 02:06:05;;;;;;;107.40;36.10;;;7.40;99.90;;;;;;4952893;28;20086;-76
2023/04/16 02:08:30;;;;;;;113.53;37.53;;;7.40;99.90;;;;;;4952156;28;20031;-76
2023/04/16 02:10:56;;;;;;;80.35;30.80;;;7.40;99.90;;;;;;4951999;28;20034;-76
2023/04/16 02:13:24;;;;;;;103.03;37.60;;;7.40;99.90;;;;;;4968960;28;20504;-76
2023/04/16 02:15:51;;;;;;;98.88;38.05;;;7.40;99.90;;;;;;4940140;28;20111;-76
2023/04/16 02:18:16;;;;;;;115.15;39.78;;;7.30;99.90;;;;;;4967523;28;20051;-76
2023/04/16 02:20:43;;;;;;;115.97;39.80;;;7.40;99.90;;;;;;4964627;28;20503;-76
2023/04/16 02:23:10;;;;;;;97.20;39.00;;;7.30;99.90;;;;;;4966941;28;20141;-76
2023/04/16 02:25:46;;;;;;;105.70;38.50;;;7.40;99.90;;;;;;4934516;28;20567;-76
2023/04/16 02:28:15;;;;;;;109.97;38.67;;;7.30;99.90;;;;;;4950376;28;20113;-76
2023/04/16 02:30:41;;;;;;;105.28;39.00;;;7.30;99.90;;;;;;4966732;28;20323;-76
2023/04/16 02:33:09;;;;;;;103.90;38.85;;;7.30;99.90;;;;;;4941171;28;20125;-75
2023/04/16 02:35:36;;;;;;;107.10;39.50;;;7.30;99.90;;;;;;4969333;28;20050;-75
2023/04/16 02:38:03;;;;;;;102.97;39.42;;;7.30;99.90;;;;;;4950297;28;20054;-76
2023/04/16 02:40:29;;;;;;;120.20;39.85;;;7.20;99.90;;;;;;4967842;28;20050;-76
2023/04/16 02:42:54;;;;;;;117.13;40.97;;;7.20;99.90;;;;;;4952450;28;20068;-76
2023/04/16 02:45:20;;;;;;;120.40;41.83;;;7.30;99.90;;;;;;4952479;28;20047;-76
2023/04/16 02:47:49;;;;;;;131.77;40.95;;;7.20;99.90;;;;;;4970474;28;20038;-76
2023/04/16 02:50:16;;;;;;;140.35;42.08;;;7.20;99.90;;;;;;4935333;28;20252;-76
2023/04/16 02:52:41;;;;;;;166.20;43.50;;;7.20;99.90;;;;;;4963909;28;20038;-76
2023/04/16 02:55:08;;;;;;;149.57;43.10;;;7.10;99.90;;;;;;4950596;28;20038;-76
2023/04/16 02:57:34;;;;;;;149.43;41.28;;;7.10;99.90;;;;;;4965490;28;20319;-76
2023/04/16 02:59:59;;;;;;;174.68;44.50;;;7.10;99.90;;;;;;4964232;28;20070;-76
2023/04/16 03:02:26;;;;;;;139.55;41.03;;;7.10;99.90;;;;;;4959464;28;20117;-75
2023/04/16 03:04:52;;;;;;;125.10;42.97;;;7.10;99.90;;;;;;4967405;28;20050;-75
2023/04/16 03:07:18;;;;;;;237.32;46.47;;;7.10;99.90;;;;;;4945945;28;20088;-75
2023/04/16 03:09:44;;;;;;;170.82;45.20;;;7.00;99.90;;;;;;4966485;28;20396;-75
2023/04/16 03:12:09;;;;;;;140.63;42.47;;;7.10;99.90;;;;;;4950711;28;20569;-75
2023/04/16 03:14:35;;;;;;;157.82;45.78;;;7.10;99.90;;;;;;4939664;28;20589;-75
2023/04/16 03:17:01;;;;;;;155.65;45.13;;;7.10;99.90;;;;;;4964189;28;20073;-75
2023/04/16 03:19:26;;;;;;;126.65;41.35;;;7.10;99.90;;;;;;4955137;28;20655;-75
2023/04/16 03:21:52;;;;;;;140.93;42.97;;;7.00;99.90;;;;;;4956036;28;20093;-75
2023/04/16 03:24:18;;;;;;;175.93;44.58;;;7.10;99.90;;;;;;4933434;28;20153;-76
2023/04/16 03:26:43;;;;;;;183.75;46.70;;;7.00;99.90;;;;;;4950653;28;20043;-75
2023/04/16 03:29:09;;;;;;;163.85;42.60;;;7.10;99.90;;;;;;4950212;28;20548;-76
2023/04/16 03:31:35;;;;;;;145.35;43.28;;;7.10;99.90;;;;;;4969571;28;20062;-76
2023/04/16 03:34:00;;;;;;;145.82;42.80;;;7.10;99.90;;;;;;4938323;28;20042;-76
2023/04/16 03:36:26;;;;;;;167.82;44.88;;;7.10;99.90;;;;;;4943578;28;20118;-76
2023/04/16 03:38:52;;;;;;;157.38;43.78;;;7.00;99.90;;;;;;4950420;28;20129;-75
2023/04/16 03:41:18;;;;;;;173.52;44.05;;;7.10;99.90;;;;;;4935379;28;20090;-76
2023/04/16 03:43:43;;;;;;;135.88;41.88;;;7.00;99.90;;;;;;4966741;28;20464;-76
2023/04/16 03:46:10;;;;;;;148.52;42.40;;;7.00;99.90;;;;;;4963989;28;20092;-76
2023/04/16 03:48:35;;;;;;;141.93;41.92;;;7.00;99.90;;;;;;4964809;28;20120;-76
2023/04/16 03:51:01;;;;;;;137.88;40.60;;;7.00;99.90;;;;;;4933020;28;20552;-76
2023/04/16 03:53:27;;;;;;;126.18;41.28;;;7.00;99.90;;;;;;4948189;28;20053;-75
2023/04/16 03:55:53;;;;;;;155.48;44.05;;;7.00;99.90;;;;;;4953791;28;20126;-76
2023/04/16 03:58:19;;;;;;;153.50;42.75;;;7.00;99.90;;;;;;4954236;28;20118;-81
2023/04/16 04:00:45;;;;;;;153.93;43.55;;;7.00;99.90;;;;;;4949235;28;20065;-76
2023/04/16 04:03:11;;;;;;;149.70;43.28;;;7.00;99.90;;;;;;4971048;28;20038;-75
2023/04/16 04:05:40;;;;;;;133.93;41.72;;;7.00;99.90;;;;;;4973252;28;20049;-76
2023/04/16 04:08:06;;;;;;;129.60;43.65;;;7.00;99.90;;;;;;4965631;28;20113;-76
2023/04/16 04:10:32;;;;;;;148.35;44.80;;;7.00;99.90;;;;;;4954370;28;20078;-76
2023/04/16 04:12:59;;;;;;;149.15;43.28;;;7.00;99.90;;;;;;4966092;28;20038;-76
2023/04/16 04:15:25;;;;;;;151.43;43.85;;;7.00;99.90;;;;;;4954200;28;20030;-76
2023/04/16 04:17:50;;;;;;;158.00;43.92;;;7.00;99.90;;;;;;4961638;28;20563;-76
2023/04/16 04:20:16;;;;;;;161.50;44.03;;;7.00;99.90;;;;;;4958436;28;20042;-76
2023/04/16 04:22:42;;;;;;;170.63;44.13;;;7.10;99.90;;;;;;4967630;28;20061;-76
2023/04/16 04:25:09;;;;;;;143.00;43.25;;;7.00;99.90;;;;;;4954671;28;20157;-76
2023/04/16 04:27:35;;;;;;;153.18;44.58;;;7.00;99.90;;;;;;4951947;28;20121;-76
2023/04/16 04:30:03;;;;;;;167.57;44.47;;;7.00;99.90;;;;;;4969600;28;20043;-76
2023/04/16 04:32:29;;;;;;;161.20;44.25;;;7.10;99.90;;;;;;4970262;28;20046;-76
2023/04/16 04:34:55;;;;;;;158.00;44.05;;;7.00;99.90;;;;;;4973817;28;20038;-76
2023/04/16 04:37:20;;;;;;;179.27;44.97;;;7.00;99.90;;;;;;4953676;28;20091;-76
2023/04/16 04:39:46;;;;;;;177.00;44.70;;;7.00;99.90;;;;;;4949955;28;20038;-76
2023/04/16 04:42:12;;;;;;;232.38;52.72;;;7.00;99.90;;;;;;4972180;28;20267;-76
2023/04/16 04:44:37;;;;;;;255.18;51.83;;;7.00;99.90;;;;;;4955559;28;20034;-75
2023/04/16 04:47:03;;;;;;;171.70;43.47;;;7.00;99.90;;;;;;4953385;28;20053;-76
2023/04/16 04:49:29;;;;;;;301.85;54.47;;;7.00;99.90;;;;;;4941178;28;20042;-76
2023/04/16 04:51:55;;;;;;;228.23;47.13;;;7.00;99.90;;;;;;4922033;28;20035;-76
2023/04/16 04:54:21;;;;;;;178.93;46.28;;;7.00;99.90;;;;;;4952057;28;20039;-76
2023/04/16 04:56:46;;;;;;;231.18;49.80;;;7.00;99.90;;;;;;4936623;28;20138;-75
2023/04/16 04:59:12;;;;;;;178.68;42.67;;;7.00;99.90;;;;;;4936606;28;20038;-76
2023/04/16 05:01:38;;;;;;;262.92;50.72;;;7.00;99.90;;;;;;4968268;28;20132;-76
2023/04/16 05:04:04;;;;;;;243.27;47.20;;;7.10;99.90;;;;;;4968973;28;20516;-76
2023/04/16 05:06:30;;;;;;;236.50;45.17;;;7.00;99.90;;;;;;4954546;28;20039;-76
2023/04/16 05:08:56;;;;;;;302.90;53.47;;;7.00;99.90;;;;;;4968420;28;20125;-76
2023/04/16 05:11:21;;;;;;;242.25;48.17;;;7.00;99.90;;;;;;4966610;28;20129;-76
2023/04/16 05:13:47;;;;;;;280.50;53.55;;;7.00;99.90;;;;;;4968837;28;20042;-76
2023/04/16 05:16:13;;;;;;;361.27;58.30;;;7.00;99.90;;;;;;4967806;28;20039;-76
2023/04/16 05:18:38;;;;;;;351.48;55.40;;;7.00;99.90;;;;;;4967604;28;20050;-75
2023/04/16 05:21:04;;;;;;;301.23;50.78;;;7.00;99.90;;;;;;4950564;28;20047;-76
2023/04/16 05:23:30;;;;;;;208.63;43.17;;;7.00;99.90;;;;;;4953709;28;20109;-76
2023/04/16 05:25:56;;;;;;;243.35;43.58;;;7.00;99.90;;;;;;4953017;28;20054;-76
2023/04/16 05:28:21;;;;;;;208.20;44.85;;;7.10;99.90;;;;;;4951254;28;21298;-76
2023/04/16 05:30:47;;;;;;;235.85;44.97;;;7.00;99.90;;;;;;4969438;28;20125;-75
2023/04/16 05:33:13;;;;;;;292.65;51.33;;;7.00;99.90;;;;;;4970975;28;20080;-75
2023/04/16 05:35:38;;;;;;;312.17;54.85;;;7.00;99.90;;;;;;4951448;28;20558;-75
2023/04/16 05:38:04;;;;;;;169.45;42.22;;;7.00;99.90;;;;;;4943085;28;20042;-75
2023/04/16 05:40:31;;;;;;;200.88;45.17;;;7.00;99.90;;;;;;4953386;28;20133;-76
2023/04/16 05:42:56;;;;;;;190.38;43.90;;;7.00;99.90;;;;;;4964444;28;20046;-76
2023/04/16 05:45:22;;;;;;;157.25;42.80;;;7.00;99.90;;;;;;4969331;28;20034;-76
2023/04/16 05:47:47;;;;;;;133.55;41.95;;;7.10;99.90;;;;;;4972449;28;20543;-76
2023/04/16 05:50:13;;;;;;;112.63;39.60;;;7.10;99.90;;;;;;4952132;28;20043;-76
2023/04/16 05:52:39;;;;;;;128.70;41.15;;;7.10;99.90;;;;;;4968914;28;20050;-76
2023/04/16 05:55:05;;;;;;;112.00;37.78;;;7.20;99.90;;;;;;4951294;28;20181;-76
2023/04/16 05:57:32;;;;;;;117.60;38.88;;;7.20;99.90;;;;;;4967093;28;20053;-75
2023/04/16 05:59:58;;;;;;;105.68;36.63;;;7.20;99.90;;;;;;4971108;28;20046;-76
2023/04/16 06:02:23;;;;;;;113.88;37.08;;;7.20;99.90;;;;;;4955485;28;20510;-76
2023/04/16 06:04:49;;;;;;;117.57;37.53;;;7.30;99.90;;;;;;4966598;28;20065;-75
2023/04/16 06:07:15;;;;;;;101.95;36.00;;;7.30;99.90;;;;;;4965852;28;20062;-76
2023/04/16 06:09:41;;;;;;;90.57;35.40;;;7.30;99.90;;;;;;4950772;28;20120;-76
2023/04/16 06:12:06;;;;;;;93.72;35.65;;;7.40;99.90;;;;;;4948146;28;20566;-76
2023/04/16 06:14:32;;;;;;;92.63;33.53;;;7.40;99.90;;;;;;4966415;28;20042;-76
2023/04/16 06:16:58;;;;;;;90.72;33.30;;;7.50;99.90;;;;;;4952113;28;20088;-76
2023/04/16 06:19:23;;;;;;;85.43;34.42;;;7.50;99.90;;;;;;4950622;28;20412;-76
2023/04/16 06:21:50;;;;;;;74.07;29.42;;;7.60;99.90;;;;;;4953242;28;20513;-76
2023/04/16 06:24:17;;;;;;;80.85;32.65;;;7.60;99.90;;;;;;4966910;28;20038;-76
2023/04/16 06:26:43;;;;;;;83.07;33.75;;;7.60;99.90;;;;;;4953938;28;20046;-76
2023/04/16 06:29:10;;;;;;;70.18;28.27;;;7.60;99.90;;;;;;4947956;28;20068;-76
2023/04/16 06:31:36;;;;;;;68.65;29.05;;;7.60;99.90;;;;;;4953889;28;20035;-76
2023/04/16 06:34:02;;;;;;;74.60;29.85;;;7.60;99.90;;;;;;4937439;28;20089;-76
2023/04/16 06:36:28;;;;;;;64.25;28.90;;;7.60;99.90;;;;;;4928020;28;20041;-76
2023/04/16 06:38:53;;;;;;;71.60;31.85;;;7.70;99.90;;;;;;4967361;28;20792;-76
2023/04/16 06:41:21;;;;;;;73.55;31.77;;;7.70;99.90;;;;;;4953122;28;20103;-76
2023/04/16 06:43:47;;;;;;;67.68;30.15;;;7.80;99.90;;;;;;4952479;28;20467;-76
2023/04/16 06:46:12;;;;;;;69.03;29.42;;;7.80;99.90;;;;;;4951100;28;20034;-75
2023/04/16 06:48:38;;;;;;;65.18;27.25;;;7.90;99.90;;;;;;4954055;28;20534;-75
2023/04/16 06:51:04;;;;;;;69.10;30.05;;;7.90;99.90;;;;;;4965968;28;20455;-75
2023/04/16 06:53:30;;;;;;;66.78;29.77;;;7.90;99.90;;;;;;4967157;28;20034;-76
2023/04/16 06:55:55;;;;;;;57.90;27.85;;;8.00;99.90;;;;;;4950193;28;20499;-76
2023/04/16 06:58:21;;;;;;;62.10;27.63;;;8.00;99.90;;;;;;4953092;28;20484;-76
2023/04/16 07:00:47;;;;;;;62.28;27.83;;;8.00;99.90;;;;;;4950894;28;20416;-76
2023/04/16 07:03:13;;;;;;;60.08;28.65;;;8.00;99.90;;;;;;4951545;28;20046;-76
2023/04/16 07:05:38;;;;;;;57.67;28.77;;;8.00;99.90;;;;;;4969474;28;20605;-76
2023/04/16 07:08:04;;;;;;;63.60;28.63;;;8.00;99.90;;;;;;4952964;28;20043;-76
2023/04/16 07:10:30;;;;;;;64.22;26.48;;;8.10;99.90;;;;;;4938041;28;20065;-75
2023/04/16 07:12:56;;;;;;;55.30;28.42;;;8.00;99.90;;;;;;4950664;28;20050;-76
2023/04/16 07:15:22;;;;;;;54.92;27.38;;;8.10;99.90;;;;;;4969234;28;20077;-76
2023/04/16 07:17:47;;;;;;;59.60;27.33;;;8.00;99.90;;;;;;4919293;28;20674;-75
2023/04/16 07:20:13;;;;;;;51.75;26.13;;;8.10;99.90;;;;;;4940715;28;20116;-75
2023/04/16 07:22:39;;;;;;;48.63;26.20;;;8.00;99.90;;;;;;4954600;28;20226;-76
2023/04/16 07:25:05;;;;;;;58.42;26.30;;;8.10;99.90;;;;;;4957013;28;21223;-76
2023/04/16 07:27:31;;;;;;;49.45;24.85;;;8.10;99.90;;;;;;4965374;28;20163;-75
2023/04/16 07:29:56;;;;;;;49.55;25.58;;;8.10;99.90;;;;;;4970933;28;20039;-76
2023/04/16 07:32:22;;;;;;;54.42;26.92;;;8.10;99.90;;;;;;4984430;28;20042;-75
2023/04/16 07:34:48;;;;;;;54.95;26.63;;;8.10;99.90;;;;;;4925568;28;20765;-76
2023/04/16 07:37:14;;;;;;;56.75;26.52;;;8.10;99.90;;;;;;4938626;28;20086;-75
2023/04/16 07:39:40;;;;;;;48.90;26.08;;;8.10;99.90;;;;;;4954670;28;20468;-75
2023/04/16 07:42:05;;;;;;;50.85;25.35;;;8.20;99.90;;;;;;4961697;28;20040;-75
2023/04/16 07:44:31;;;;;;;50.75;26.30;;;8.20;99.90;;;;;;4954427;28;20059;-76
2023/04/16 07:46:57;;;;;;;55.95;26.42;;;8.30;99.90;;;;;;4973068;28;20550;-76
2023/04/16 07:49:22;;;;;;;46.42;24.30;;;8.40;99.90;;;;;;4938391;28;20126;-75
2023/04/16 07:51:48;;;;;;;50.05;26.65;;;8.50;99.90;;;;;;4951569;28;20133;-76
2023/04/16 07:54:14;;;;;;;49.45;26.67;;;8.60;99.90;;;;;;4940087;28;20035;-76
2023/04/16 07:56:40;;;;;;;53.25;27.35;;;8.70;99.90;;;;;;4953987;28;20531;-75
2023/04/16 07:59:05;;;;;;;47.58;24.85;;;8.80;99.90;;;;;;4938391;28;20050;-75
2023/04/16 08:01:31;;;;;;;50.92;25.90;;;8.90;99.90;;;;;;4941930;28;20046;-76
2023/04/16 08:03:57;;;;;;;49.92;26.92;;;9.00;99.90;;;;;;4935891;28;20049;-76
2023/04/16 08:06:23;;;;;;;47.03;26.27;;;9.00;99.90;;;;;;4936265;28;20039;-76
2023/04/16 08:08:49;;;;;;;45.00;25.10;;;9.10;99.90;;;;;;4936352;28;20067;-76
2023/04/16 08:11:15;;;;;;;51.38;23.67;;;9.10;99.90;;;;;;4938102;28;20125;-76
2023/04/16 08:13:40;;;;;;;51.13;25.58;;;9.20;99.90;;;;;;4956388;28;20046;-76
2023/04/16 08:16:06;;;;;;;53.22;24.98;;;9.20;99.90;;;;;;4954729;28;20648;-76
2023/04/16 08:18:32;;;;;;;51.85;25.25;;;9.40;99.90;;;;;;4955294;28;20507;-76
2023/04/16 08:20:58;;;;;;;46.95;25.33;;;9.40;99.90;;;;;;4956545;28;20073;-76
2023/04/16 08:23:23;;;;;;;44.85;24.27;;;9.50;99.90;;;;;;4956067;28;20523;-76
2023/04/16 08:25:49;;;;;;;49.13;24.10;;;9.50;99.90;;;;;;4971467;28;20042;-76
2023/04/16 08:28:15;;;;;;;48.13;24.55;;;9.60;99.90;;;;;;4939980;28;20523;-76
2023/04/16 08:30:40;;;;;;;38.60;22.23;;;9.70;99.90;;;;;;4983779;28;20045;-76
2023/04/16 08:33:06;;;;;;;44.63;23.70;;;9.80;99.90;;;;;;4953360;28;20153;-77
2023/04/16 08:35:32;;;;;;;43.53;23.15;;;10.00;99.90;;;;;;4955485;28;20428;-77
2023/04/16 08:37:59;;;;;;;46.63;23.58;;;10.10;99.90;;;;;;4949831;28;20133;-77
2023/04/16 08:40:28;;;;;;;46.55;22.75;;;10.20;99.90;;;;;;4956146;28;20097;-77
2023/04/16 08:42:57;;;;;;;39.08;21.92;;;10.30;99.90;;;;;;4972038;28;20097;-77
2023/04/16 08:45:25;;;;;;;36.03;21.13;;;10.40;99.90;;;;;;4971247;28;20079;-77
2023/04/16 08:47:52;;;;;;;42.58;22.83;;;10.50;99.90;;;;;;4950743;28;20098;-77
2023/04/16 08:50:25;;;;;;;40.83;22.30;;;10.70;99.90;;;;;;4945147;28;20042;-77
2023/04/16 08:53:00;;;;;;;35.90;21.65;;;10.80;99.90;;;;;;4954325;28;20094;-76
2023/04/16 08:55:38;;;;;;;39.40;21.60;;;10.90;99.90;;;;;;4970406;28;20540;-77
2023/04/16 08:58:22;;;;;;;34.25;20.42;;;11.20;99.90;;;;;;4983906;28;20045;-76
2023/04/16 09:00:48;;;;;;;28.15;18.85;;;11.50;99.90;;;;;;4970372;28;20054;-76
2023/04/16 09:03:14;;;;;;;34.80;19.38;;;11.70;99.90;;;;;;4952275;28;20151;-76
2023/04/16 09:05:41;;;;;;;36.88;19.23;;;11.90;99.90;;;;;;4951461;28;20810;-76
2023/04/16 09:08:07;;;;;;;31.15;18.52;;;12.10;99.90;;;;;;4974057;28;20089;-76
2023/04/16 09:10:33;;;;;;;32.08;18.13;;;12.20;99.90;;;;;;4955904;28;20078;-76
2023/04/16 09:13:00;;;;;;;34.28;19.17;;;12.40;99.90;;;;;;4969663;28;20038;-76
2023/04/16 09:15:26;;;;;;;26.70;18.55;;;12.30;99.90;;;;;;4971500;28;20031;-76
2023/04/16 09:17:52;;;;;;;30.50;19.48;;;12.20;99.90;;;;;;4939310;28;20385;-76
2023/04/16 09:20:19;;;;;;;32.17;18.73;;;11.90;99.90;;;;;;4953574;28;20039;-76
2023/04/16 09:22:45;;;;;;;28.40;17.40;;;11.70;99.90;;;;;;4971042;28;20113;-76
2023/04/16 09:25:12;;;;;;;26.75;17.48;;;11.60;99.90;;;;;;4953433;28;20039;-76
2023/04/16 09:27:38;;;;;;;29.77;17.65;;;11.60;99.90;;;;;;4993380;28;20046;-76
2023/04/16 09:30:21;;;;;;;31.45;17.35;;;11.50;99.90;;;;;;4971325;28;20038;-76
2023/04/16 09:32:47;;;;;;;27.63;16.35;;;11.60;99.90;;;;;;4970246;28;20046;-75
2023/04/16 09:35:14;;;;;;;34.25;18.90;;;11.60;99.90;;;;;;4970410;28;20054;-76
2023/04/16 09:37:39;;;;;;;32.70;18.00;;;11.70;99.90;;;;;;4970894;28;20516;-76
2023/04/16 09:40:06;;;;;;;31.25;17.40;;;11.70;99.90;;;;;;4954186;28;20126;-76
2023/04/16 09:42:38;;;;;;;25.95;17.27;;;11.90;99.90;;;;;;4956316;28;20050;-76
2023/04/16 09:45:04;;;;;;;30.33;15.85;;;12.00;99.90;;;;;;4963553;28;20125;-76
2023/04/16 09:47:41;;;;;;;30.70;17.17;;;12.10;99.90;;;;;;4963309;28;20528;-76
2023/04/16 09:50:09;;;;;;;24.77;15.95;;;12.30;99.90;;;;;;4967711;28;20050;-76
2023/04/16 09:52:37;;;;;;;26.35;16.77;;;12.40;99.90;;;;;;4938948;28;20451;-76
2023/04/16 09:55:04;;;;;;;24.08;16.42;;;12.40;99.90;;;;;;4938636;28;20045;-76
2023/04/16 09:57:30;;;;;;;26.05;15.85;;;12.50;99.90;;;;;;4953017;28;20050;-76
2023/04/16 10:00:04;;;;;;;30.83;17.42;;;12.60;99.90;;;;;;4951071;28;20035;-76
2023/04/16 10:02:31;;;;;;;27.27;16.92;;;12.70;99.90;;;;;;4937466;28;20452;-77
2023/04/16 10:05:00;;;;;;;21.23;14.85;;;12.80;99.90;;;;;;4951994;28;20038;-77
2023/04/16 10:07:34;;;;;;;25.38;16.88;;;12.80;99.90;;;;;;4936553;28;20105;-77
2023/04/16 10:10:00;;;;;;;27.20;15.60;;;12.90;99.90;;;;;;4950870;28;20083;-78
2023/04/16 10:12:27;;;;;;;26.60;16.88;;;12.90;99.90;;;;;;4948582;28;20059;-77
2023/04/16 10:14:53;;;;;;;24.10;15.48;;;12.90;99.90;;;;;;4948788;28;20097;-78
2023/04/16 10:17:20;;;;;;;26.92;16.88;;;13.00;99.90;;;;;;4947796;28;20039;-79
2023/04/16 10:20:00;;;;;;;27.05;16.70;;;13.00;99.90;;;;;;5098509;27;20415;-65
2023/04/16 10:22:26;;;;;;;25.63;16.50;;;13.10;99.90;;;;;;5095870;28;20127;-66
2023/04/16 10:24:53;;;;;;;25.48;16.58;;;13.30;99.90;;;;;;5079539;28;20157;-66
2023/04/16 10:27:20;;;;;;;21.63;15.90;;;13.30;99.90;;;;;;5097956;28;20067;-66
2023/04/16 10:29:46;;;;;;;22.20;16.23;;;13.40;99.90;;;;;;5079497;28;20048;-65
2023/04/16 10:32:12;;;;;;;24.30;15.18;;;13.50;99.90;;;;;;5105458;28;20485;-66
2023/04/16 10:34:39;;;;;;;21.10;15.90;;;13.50;99.90;;;;;;5104475;28;20079;-66
2023/04/16 10:37:05;;;;;;;24.95;15.88;;;13.70;99.90;;;;;;5107083;28;20075;-66
2023/04/16 10:39:37;;;;;;;22.77;16.05;;;13.70;99.90;;;;;;5106207;28;20148;-66
2023/04/16 10:42:08;;;;;;;24.33;16.52;;;13.90;99.90;;;;;;5101587;28;20366;-66
2023/04/16 10:44:33;;;;;;;23.80;16.88;;;14.10;99.90;;;;;;5073479;28;20036;-66
2023/04/16 10:46:59;;;;;;;23.42;16.10;;;14.20;99.90;;;;;;5088388;28;20031;-66
2023/04/16 10:49:26;;;;;;;23.67;15.25;;;14.20;99.90;;;;;;5106227;28;20382;-66
2023/04/16 10:51:51;;;;;;;27.17;15.52;;;14.00;99.90;;;;;;5091192;27;20039;-66
2023/04/16 10:54:18;;;;;;;21.92;16.02;;;14.20;99.90;;;;;;5095600;28;20485;-66
2023/04/16 10:56:45;;;;;;;22.73;16.20;;;14.30;99.90;;;;;;5086430;28;20059;-66
2023/04/16 10:59:11;;;;;;;24.55;16.65;;;14.30;99.90;;;;;;5106556;28;20559;-66
2023/04/16 11:01:43;;;;;;;24.85;14.65;;;14.20;99.90;;;;;;5086224;28;20498;-66
2023/04/16 11:04:18;;;;;;;25.90;16.48;;;14.40;99.90;;;;;;5088229;28;20118;-66
2023/04/16 11:07:05;;;;;;;22.40;16.23;;;14.50;99.90;;;;;;5107944;28;20062;-66
2023/04/16 11:09:58;;;;;;;23.05;16.20;;;14.70;99.90;;;;;;5087768;28;20102;-66
2023/04/16 11:12:45;;;;;;;23.70;16.15;;;14.80;99.90;;;;;;5070314;28;20402;-66
2023/04/16 11:15:12;;;;;;;22.95;14.95;;;14.90;99.90;;;;;;5086310;28;20059;-66
2023/04/16 11:17:40;;;;;;;18.90;15.55;;;14.90;99.90;;;;;;5079491;28;20052;-66
2023/04/16 11:20:18;;;;;;;23.60;15.65;;;14.90;99.90;;;;;;5099125;28;20048;-66
2023/04/16 11:22:46;;;;;;;25.75;16.38;;;14.90;99.90;;;;;;5099315;28;20126;-66
2023/04/16 11:25:17;;;;;;;24.38;16.38;;;14.60;99.90;;;;;;5099803;28;20039;-66
2023/04/16 11:27:43;;;;;;;23.02;17.02;;;14.70;99.90;;;;;;5081178;28;20130;-66
2023/04/16 11:30:09;;;;;;;22.27;15.68;;;14.90;99.90;;;;;;5090169;28;20186;-66
2023/04/16 11:32:37;;;;;;;21.92;16.50;;;14.70;99.90;;;;;;5065276;28;20051;-66
2023/04/16 11:35:12;;;;;;;19.08;14.50;;;14.90;99.90;;;;;;5067370;28;20532;-67
2023/04/16 11:37:38;;;;;;;25.00;15.85;;;14.90;99.90;;;;;;5089680;28;20044;-66
2023/04/16 11:40:11;;;;;;;23.75;14.88;;;15.00;99.90;;;;;;5075726;28;20071;-66
2023/04/16 11:42:41;;;;;;;21.23;14.25;;;15.20;99.90;;;;;;5072372;28;20036;-66
2023/04/16 11:45:08;;;;;;;24.67;16.02;;;15.20;99.90;;;;;;5072518;28;20158;-66
2023/04/16 11:47:51;;;;;;;24.17;15.52;;;15.40;99.90;;;;;;5088641;28;20040;-66
2023/04/16 11:50:21;;;;;;;21.88;14.52;;;15.40;99.90;;;;;;5091574;28;20458;-66
2023/04/16 11:52:48;;;;;;;20.67;14.70;;;15.40;99.90;;;;;;5093402;28;20047;-66
2023/04/16 11:55:14;;;;;;;24.80;15.15;;;15.40;99.90;;;;;;5090991;28;20128;-66
2023/04/16 11:57:40;;;;;;;23.13;13.50;;;15.70;99.90;;;;;;5071546;28;20069;-66
2023/04/16 12:00:12;;;;;;;21.92;14.10;;;15.60;99.90;;;;;;5089220;28;20495;-66
2023/04/16 12:02:39;;;;;;;;;;;15.70;99.90;;;;;;5071594;28;20058;-66
2023/04/16 12:05:29;;;;;;;20.67;15.45;;;15.60;99.90;;;;;;5093993;28;20350;-66
2023/04/16 12:07:56;;;;;;;18.27;14.13;;;15.80;99.90;;;;;;5089967;28;20073;-65
2023/04/16 12:10:22;;;;;;;20.40;13.90;;;16.20;99.90;;;;;;5090973;28;20028;-65
2023/04/16 12:12:48;;;;;;;22.70;15.05;;;16.40;99.90;;;;;;5098694;28;20028;-65
2023/04/16 12:15:14;;;;;;;20.17;14.50;;;16.30;99.90;;;;;;5093590;28;20031;-65
2023/04/16 12:17:40;;;;;;;22.50;14.63;;;16.20;99.90;;;;;;5091141;28;20392;-65
2023/04/16 12:20:14;;;;;;;25.27;15.90;;;16.10;99.90;;;;;;5091187;28;20032;-65
2023/04/16 12:22:48;;;;;;;22.80;14.30;;;15.80;99.90;;;;;;5068939;28;20121;-65
2023/04/16 12:25:16;;;;;;;19.15;14.30;;;15.90;99.90;;;;;;5072628;28;20691;-65
2023/04/16 12:27:51;;;;;;;22.85;15.15;;;15.90;99.90;;;;;;5088664;28;20044;-65
2023/04/16 12:30:21;;;;;;;22.63;14.27;;;16.30;99.90;;;;;;5057222;28;20032;-65